Canadian Lakes, Michigan
Current Conditions -  °F | °C
As of 2:35 AM on Friday 31 Oct 2014 (Local Time) from KRQB Reporting Station
Unknown Precip Unknown Precip  
Wind Chill: 37°   Ceiling: 2000
Heat Index: 42°   Visibility: 4mi
Dew Point: 42°   Wind: 8mph
Humidity: 100%   Direction: 290°WNW
Pressure: 29.92"   Gusts: NA
Location:  43.5899°N, 85.4038°W
Report Text: KRQB 310635Z AUTO 29007KT 4SM UP SCT015 BKN020 OVC042 06/06 A2992 RMK AO2 P0001 T00550055
Loading
Personal Weather Stations






























Interactive Weather Map
Tropical Storm Tracking
New forecast layout! Learn more

10-Day Weather Forecast

Advertisements
Track Severe Weather on mobile